Montezuma, North Carolina
Current Conditions -  °F | °C
As of 4:35 PM on Friday 28 Nov 2014 (Local Time) from KTNB Reporting Station
Clear Clear  
Wind Chill: 28°   Ceiling: Unl
Heat Index: 32°   Visibility: 10mi
Dew Point: 19°   Wind: 5mph
Humidity: 58%   Direction: 270°W
Pressure: 30.19"   Gusts: NA
Location:  36.06°N, 81.9°W
Report Text: KTNB 282135Z AUTO 27004KT 10SM CLR 00/M07 A3019 RMK AO2 T00011074
Loading
Personal Weather Stations






























Interactive Weather Map New forecast layout! Learn more

10-Day Weather Forecast

Advertisements
Track Severe Weather on mobile